Time;durP1;ratioP1;P1;durP2;ratioP2;P2;SDS_P1;SDS_P2;PMS_P1;PMS_P2;Temp;Humidity;BMP_temperature;BMP_pressure;BME280_temperature;BME280_humidity;BME280_pressure;Samples;Min_cycle;Max_cycle;Signal;HPM_P1;HPM_P2
2022/04/17 00:00:06;;;;;;;8.05;4.75;;;5.80;99.90;;;;;;5116101;28;20040;-81
2022/04/17 00:02:31;;;;;;;7.03;4.28;;;5.90;99.90;;;;;;5116186;28;20082;-80
2022/04/17 00:04:57;;;;;;;8.65;4.68;;;5.80;99.90;;;;;;5115935;28;20075;-80
2022/04/17 00:07:23;;;;;;;7.78;4.53;;;5.90;99.90;;;;;;5115693;28;20051;-80
2022/04/17 00:09:48;;;;;;;9.10;5.07;;;5.90;99.90;;;;;;5115862;28;20130;-80
2022/04/17 00:12:14;;;;;;;9.18;4.97;;;5.90;99.90;;;;;;5115038;28;20147;-80
2022/04/17 00:14:40;;;;;;;9.77;4.65;;;5.90;99.90;;;;;;5115766;28;20087;-78
2022/04/17 00:17:06;;;;;;;6.93;4.50;;;5.80;99.90;;;;;;5115758;28;20050;-79
2022/04/17 00:19:32;;;;;;;8.65;4.65;;;5.80;99.90;;;;;;5115695;28;20127;-80
2022/04/17 00:21:57;;;;;;;7.28;4.80;;;5.80;99.90;;;;;;5115266;28;20039;-79
2022/04/17 00:24:23;;;;;;;6.60;4.32;;;5.90;99.90;;;;;;5115588;28;20047;-80
2022/04/17 00:26:48;;;;;;;8.20;4.68;;;5.80;99.90;;;;;;5116038;28;20044;-80
2022/04/17 00:29:14;;;;;;;7.80;4.82;;;5.80;99.90;;;;;;5114537;28;20047;-80
2022/04/17 00:31:39;;;;;;;8.27;4.65;;;5.70;99.90;;;;;;5115463;28;20079;-81
2022/04/17 00:34:05;;;;;;;10.70;4.93;;;5.70;99.90;;;;;;5115325;28;20127;-80
2022/04/17 00:36:31;;;;;;;7.80;4.70;;;5.70;99.90;;;;;;5114932;28;20051;-79
2022/04/17 00:38:56;;;;;;;9.68;4.60;;;5.70;99.90;;;;;;5115761;28;20044;-80
2022/04/17 00:41:22;;;;;;;6.82;4.80;;;5.60;99.90;;;;;;5115667;28;20430;-79
2022/04/17 00:43:48;;;;;;;10.27;4.82;;;5.60;99.90;;;;;;5115238;28;20044;-78
2022/04/17 00:46:14;;;;;;;8.48;4.95;;;5.60;99.90;;;;;;5114219;28;20101;-79
2022/04/17 00:48:41;;;;;;;8.80;4.60;;;5.60;99.90;;;;;;5115254;28;20047;-80
2022/04/17 00:51:08;;;;;;;8.77;4.60;;;5.50;99.90;;;;;;5115123;28;20269;-80
2022/04/17 00:53:35;;;;;;;7.65;5.15;;;5.50;99.90;;;;;;5115046;28;20051;-81
2022/04/17 00:56:03;;;;;;;7.75;4.85;;;5.50;99.90;;;;;;5115011;28;20050;-79
2022/04/17 00:58:31;;;;;;;7.38;4.88;;;5.70;99.90;;;;;;5115000;28;20044;-80
2022/04/17 01:00:57;;;;;;;9.23;4.97;;;5.40;99.90;;;;;;5114771;28;20039;-78
2022/04/17 01:03:23;;;;;;;8.45;5.32;;;5.40;99.90;;;;;;5114812;28;20046;-80
2022/04/17 01:05:49;;;;;;;8.02;5.03;;;5.40;99.90;;;;;;5115073;28;20039;-79
2022/04/17 01:08:15;;;;;;;9.05;5.30;;;5.30;99.90;;;;;;5115145;28;20045;-79
2022/04/17 01:10:41;;;;;;;6.70;4.67;;;5.20;99.90;;;;;;5114584;28;20048;-78
2022/04/17 01:13:10;;;;;;;8.30;4.82;;;5.20;99.90;;;;;;5115009;28;20285;-80
2022/04/17 01:15:36;;;;;;;10.32;5.18;;;5.10;99.90;;;;;;5114595;28;20043;-78
2022/04/17 01:18:03;;;;;;;8.15;4.97;;;5.10;99.90;;;;;;5114773;28;20093;-79
2022/04/17 01:20:29;;;;;;;6.93;5.15;;;5.00;99.90;;;;;;5114485;28;20066;-78
2022/04/17 01:26:56;;;;;;;6.72;4.82;;;5.00;99.90;;;;;;5114477;28;20039;-80
2022/04/17 01:28:26;;;;;;;7.63;5.32;;;4.90;99.90;;;;;;5114475;28;20513;-78
2022/04/17 01:30:56;;;;;;;7.57;5.03;;;4.90;99.90;;;;;;5114416;28;20083;-79
2022/04/17 01:33:23;;;;;;;10.52;5.15;;;4.80;99.90;;;;;;5114399;28;20047;-78
2022/04/17 01:35:49;;;;;;;7.13;4.93;;;4.80;99.90;;;;;;5114358;28;20046;-80
2022/04/17 01:38:15;;;;;;;9.27;5.03;;;4.70;99.90;;;;;;5115196;28;20113;-79
2022/04/17 01:40:40;;;;;;;8.38;5.10;;;4.60;99.90;;;;;;5114357;28;20044;-78
2022/04/17 01:43:12;;;;;;;8.68;5.60;;;4.60;99.90;;;;;;5114280;28;20048;-79
2022/04/17 01:45:38;;;;;;;8.45;5.20;;;4.50;99.90;;;;;;5114171;28;20036;-78
2022/04/17 01:48:04;;;;;;;7.57;4.75;;;4.50;99.90;;;;;;5114222;28;20532;-78
2022/04/17 01:50:30;;;;;;;8.95;5.78;;;4.40;99.90;;;;;;5114155;28;20043;-79
2022/04/17 01:53:00;;;;;;;9.25;5.30;;;4.40;99.90;;;;;;5114035;28;20506;-78
2022/04/17 01:55:27;;;;;;;13.93;5.40;;;4.40;99.90;;;;;;5114125;28;20043;-79
2022/04/17 01:57:52;;;;;;;7.70;5.30;;;4.30;99.90;;;;;;5114058;28;20048;-78
2022/04/17 02:00:18;;;;;;;11.13;5.53;;;4.30;99.90;;;;;;5113854;28;20422;-78
2022/04/17 02:02:43;;;;;;;10.13;5.85;;;4.30;99.90;;;;;;5114080;28;20044;-79
2022/04/17 02:05:09;;;;;;;8.50;5.13;;;4.30;99.90;;;;;;5114054;28;20036;-78
2022/04/17 02:07:36;;;;;;;10.63;5.85;;;4.20;99.90;;;;;;5113989;28;20130;-79
2022/04/17 02:10:03;;;;;;;;;;;4.20;99.90;;;;;;5114566;28;20050;-79
2022/04/17 02:12:28;;;;;;;10.20;5.80;;;4.20;99.90;;;;;;5114596;28;20314;-79
2022/04/17 02:14:54;;;;;;;7.93;5.38;;;4.10;99.90;;;;;;5113571;28;20075;-78
2022/04/17 02:17:19;;;;;;;9.00;5.80;;;4.10;99.90;;;;;;5114304;28;20069;-80
2022/04/17 02:19:45;;;;;;;9.38;5.55;;;4.10;99.90;;;;;;5113904;28;20047;-78
2022/04/17 02:22:10;;;;;;;9.38;5.53;;;4.10;99.90;;;;;;5113727;28;20043;-80
2022/04/17 02:24:36;;;;;;;10.10;6.07;;;4.00;99.90;;;;;;5112905;28;20046;-78
2022/04/17 02:27:02;;;;;;;8.57;5.65;;;4.00;99.90;;;;;;5113893;28;20088;-78
2022/04/17 02:29:27;;;;;;;9.07;5.47;;;4.00;99.90;;;;;;5113862;28;20536;-79
2022/04/17 02:31:53;;;;;;;10.25;5.97;;;4.00;99.90;;;;;;5114215;28;20040;-78
2022/04/17 02:34:19;;;;;;;9.55;6.22;;;4.00;99.90;;;;;;5113734;28;20040;-78
2022/04/17 02:36:44;;;;;;;8.63;5.80;;;4.00;99.90;;;;;;5117194;28;20056;-78
2022/04/17 02:39:10;;;;;;;10.60;6.22;;;3.90;99.90;;;;;;5117866;28;20075;-79
2022/04/17 02:41:36;;;;;;;10.95;5.63;;;3.90;99.90;;;;;;5116827;28;20044;-80
2022/04/17 02:44:01;;;;;;;9.00;5.88;;;3.80;99.90;;;;;;5117558;28;20036;-79
2022/04/17 02:49:28;;;;;;;9.52;5.95;;;3.80;99.90;;;;;;5054505;28;20049;-79
2022/04/17 02:51:53;;;;;;;11.48;5.95;;;3.80;99.90;;;;;;5104309;27;20048;-78
2022/04/17 02:54:19;;;;;;;9.93;5.88;;;3.80;99.90;;;;;;5117418;28;20050;-79
2022/04/17 02:56:45;;;;;;;8.95;5.75;;;3.70;99.90;;;;;;5116811;28;20055;-79
2022/04/17 02:59:11;;;;;;;11.68;6.70;;;3.70;99.90;;;;;;5116363;28;20079;-79
2022/04/17 03:07:05;;;;;;;11.27;6.35;;;3.60;99.90;;;;;;5117178;28;20043;-78
2022/04/17 03:09:30;;;;;;;13.50;6.53;;;3.60;99.90;;;;;;5117613;28;20426;-79
2022/04/17 03:11:56;;;;;;;10.52;6.60;;;3.60;99.90;;;;;;5116933;28;20625;-78
2022/04/17 03:14:21;;;;;;;10.23;6.03;;;3.50;99.90;;;;;;5116036;28;20081;-79
2022/04/17 03:16:47;;;;;;;10.25;6.00;;;3.50;99.90;;;;;;5116915;28;20096;-79
2022/04/17 03:19:13;;;;;;;12.20;7.07;;;3.40;99.90;;;;;;5117148;28;20047;-79
2022/04/17 03:21:38;;;;;;;10.85;5.97;;;3.40;99.90;;;;;;5116912;28;20439;-79
2022/04/17 03:24:04;;;;;;;10.30;6.35;;;3.40;99.90;;;;;;5117058;28;20506;-79
2022/04/17 03:26:30;;;;;;;10.07;6.70;;;3.40;99.90;;;;;;5117327;28;20046;-79
2022/04/17 03:28:56;;;;;;;11.73;6.20;;;3.40;99.90;;;;;;5116875;28;20061;-78
2022/04/17 03:31:21;;;;;;;13.75;6.00;;;3.30;99.90;;;;;;5116832;28;20050;-78
2022/04/17 03:33:47;;;;;;;8.43;6.00;;;3.30;99.90;;;;;;5116695;28;20070;-79
2022/04/17 03:36:12;;;;;;;10.32;6.15;;;3.20;99.90;;;;;;5115503;28;20475;-79
2022/04/17 03:38:38;;;;;;;10.70;6.45;;;3.20;99.90;;;;;;5116597;28;20052;-77
2022/04/17 03:41:04;;;;;;;11.27;6.13;;;3.10;99.90;;;;;;5115265;28;20062;-78
2022/04/17 03:43:29;;;;;;;12.52;6.93;;;3.10;99.90;;;;;;5116457;28;20040;-80
2022/04/17 03:45:55;;;;;;;11.88;6.93;;;3.10;99.90;;;;;;5116189;28;20048;-80
2022/04/17 03:48:20;;;;;;;11.77;6.38;;;3.70;99.90;;;;;;5115564;28;20418;-78
2022/04/17 03:50:47;;;;;;;10.77;6.13;;;3.10;99.90;;;;;;5116258;28;20187;-80
2022/04/17 03:53:13;;;;;;;9.88;6.70;;;3.10;99.90;;;;;;5116022;28;20476;-80
2022/04/17 03:55:39;;;;;;;10.18;6.45;;;3.10;99.90;;;;;;5116016;28;20083;-79
2022/04/17 03:58:04;;;;;;;9.77;6.50;;;3.00;99.90;;;;;;5115348;28;20044;-79
2022/04/17 04:00:30;;;;;;;10.98;6.45;;;3.00;99.90;;;;;;5116334;28;20196;-78
2022/04/17 04:02:56;;;;;;;10.20;5.60;;;3.00;99.90;;;;;;5116290;28;20043;-80
2022/04/17 04:05:21;;;;;;;8.52;5.95;;;3.00;99.90;;;;;;5115988;28;20081;-79
2022/04/17 04:07:47;;;;;;;11.25;6.13;;;2.90;99.90;;;;;;5115941;28;20039;-81
2022/04/17 04:10:13;;;;;;;12.10;6.93;;;2.90;99.90;;;;;;5116035;28;20087;-79
2022/04/17 04:12:39;;;;;;;10.02;6.60;;;2.90;99.90;;;;;;5116233;28;20530;-79
2022/04/17 04:15:06;;;;;;;9.82;6.03;;;2.80;99.90;;;;;;5115704;28;20065;-79
2022/04/17 04:17:32;;;;;;;12.60;6.70;;;2.70;99.90;;;;;;5114889;28;20047;-78
2022/04/17 04:19:58;;;;;;;10.18;6.80;;;2.70;99.90;;;;;;5115704;28;20476;-79
2022/04/17 04:22:24;;;;;;;13.73;6.57;;;2.60;99.90;;;;;;5114519;28;20047;-80
2022/04/17 04:24:49;;;;;;;10.70;6.27;;;2.60;99.90;;;;;;5115711;28;20078;-77
2022/04/17 04:30:00;;;;;;;10.70;6.78;;;2.50;99.90;;;;;;5115700;28;20134;-79
2022/04/17 04:32:25;;;;;;;11.15;6.72;;;2.50;99.90;;;;;;5115868;28;20462;-80
2022/04/17 04:34:51;;;;;;;11.45;7.30;;;2.50;99.90;;;;;;5115325;28;20068;-80
2022/04/17 04:37:16;;;;;;;14.52;7.25;;;2.50;99.90;;;;;;5115500;28;20035;-80
2022/04/17 04:39:42;;;;;;;14.73;7.22;;;2.40;99.90;;;;;;5115845;28;20131;-77
2022/04/17 04:42:08;;;;;;;10.38;6.50;;;2.50;99.90;;;;;;5115681;28;20039;-78
2022/04/17 04:44:33;;;;;;;8.85;6.22;;;2.50;99.90;;;;;;5115052;28;20039;-77
2022/04/17 04:46:59;;;;;;;10.52;6.72;;;3.10;99.90;;;;;;5131488;27;20047;-78
2022/04/17 04:49:30;;;;;;;10.98;6.93;;;2.50;99.90;;;;;;5115198;28;20039;-78
2022/04/17 04:51:57;;;;;;;11.70;6.18;;;2.50;99.90;;;;;;5115302;28;20130;-79
2022/04/17 04:54:23;;;;;;;18.70;7.30;;;2.50;99.90;;;;;;5115139;28;20040;-78
2022/04/17 04:56:48;;;;;;;11.43;6.70;;;2.50;99.90;;;;;;5115446;28;20051;-79
2022/04/17 04:59:14;;;;;;;9.98;6.82;;;2.50;99.90;;;;;;5114810;28;20046;-78
2022/04/17 05:01:39;;;;;;;11.88;7.07;;;2.50;99.90;;;;;;5115090;28;20480;-78
2022/04/17 05:04:05;;;;;;;12.15;6.75;;;2.50;99.90;;;;;;5115008;28;20475;-77
2022/04/17 05:06:31;;;;;;;11.38;7.85;;;2.50;99.90;;;;;;5114715;28;20406;-78
2022/04/17 05:08:56;;;;;;;16.13;7.75;;;2.60;99.90;;;;;;5114974;28;20048;-78
2022/04/17 05:11:22;;;;;;;11.75;7.57;;;2.60;99.90;;;;;;5114547;28;20051;-78
2022/04/17 05:13:47;;;;;;;11.60;7.13;;;2.60;99.90;;;;;;5114656;28;20053;-77
2022/04/17 05:16:13;;;;;;;12.32;6.85;;;2.70;99.90;;;;;;5114833;28;20043;-78
2022/04/17 05:18:39;;;;;;;17.20;8.23;;;2.80;99.90;;;;;;5114689;28;20047;-79
2022/04/17 05:21:05;;;;;;;12.85;7.53;;;2.90;99.90;;;;;;5114847;28;20476;-78
2022/04/17 05:23:31;;;;;;;13.07;7.68;;;3.00;99.90;;;;;;5115218;28;20043;-78
2022/04/17 05:26:02;;;;;;;13.57;8.02;;;3.10;99.90;;;;;;5113888;28;20177;-79
2022/04/17 05:28:30;;;;;;;18.60;7.97;;;3.10;99.90;;;;;;5113786;28;20509;-78
2022/04/17 05:30:57;;;;;;;14.93;7.88;;;3.20;99.90;;;;;;5114564;28;20047;-79
2022/04/17 05:33:23;;;;;;;12.13;7.60;;;3.30;99.90;;;;;;5114462;28;20097;-78
2022/04/17 05:35:52;;;;;;;11.43;7.23;;;3.30;99.90;;;;;;5114135;28;20475;-79
2022/04/17 05:38:20;;;;;;;14.63;7.85;;;3.40;99.90;;;;;;5114485;28;20122;-78
2022/04/17 05:40:49;;;;;;;13.90;7.10;;;3.50;99.90;;;;;;5113139;28;20087;-78
2022/04/17 05:43:15;;;;;;;14.32;7.55;;;6.20;99.90;;;;;;5114412;28;20044;-79
2022/04/17 05:45:41;;;;;;;15.18;7.35;;;3.60;99.90;;;;;;5114442;28;20093;-78
2022/04/17 05:48:09;;;;;;;11.37;7.67;;;3.70;99.90;;;;;;5114457;28;20116;-78
2022/04/17 05:50:36;;;;;;;13.55;7.90;;;3.80;99.90;;;;;;5114418;28;20281;-79
2022/04/17 05:53:02;;;;;;;12.18;7.75;;;3.90;99.90;;;;;;5114309;28;20434;-80
2022/04/17 05:55:29;;;;;;;13.53;7.83;;;4.50;99.90;;;;;;5114354;28;20387;-78
2022/04/17 05:57:54;;;;;;;11.73;7.25;;;4.10;99.90;;;;;;5114545;28;20331;-80
2022/04/17 06:00:21;;;;;;;14.05;8.20;;;4.20;99.90;;;;;;5114230;28;20433;-79
2022/04/17 06:02:48;;;;;;;12.13;7.70;;;4.30;99.90;;;;;;5114643;28;20100;-79
2022/04/17 06:05:14;;;;;;;14.20;7.97;;;4.40;99.90;;;;;;5113133;28;20395;-80
2022/04/17 06:07:40;;;;;;;13.68;8.10;;;4.50;99.90;;;;;;5114111;28;20096;-79
2022/04/17 06:10:09;;;;;;;12.20;7.57;;;4.60;99.90;;;;;;5114134;28;20082;-79
2022/04/17 06:12:35;;;;;;;13.43;7.75;;;4.70;99.90;;;;;;5118092;28;20063;-78
2022/04/17 06:15:01;;;;;;;13.85;7.90;;;4.80;99.90;;;;;;5118188;28;20377;-79
2022/04/17 06:17:26;;;;;;;11.82;7.78;;;4.90;99.90;;;;;;5118053;28;20066;-79
2022/04/17 06:19:52;;;;;;;11.30;7.50;;;5.00;99.90;;;;;;5118021;28;20042;-77
2022/04/17 06:22:18;;;;;;;12.82;7.88;;;5.10;99.90;;;;;;5118113;28;20387;-78
2022/04/17 06:24:47;;;;;;;13.88;7.25;;;5.30;99.90;;;;;;5117971;28;20050;-79
2022/04/17 06:27:12;;;;;;;16.15;7.63;;;5.40;99.90;;;;;;5117874;28;20043;-78
2022/04/17 06:29:38;;;;;;;12.85;6.63;;;5.60;99.90;;;;;;5116916;28;20085;-78
2022/04/17 06:32:04;;;;;;;13.63;7.45;;;5.70;99.90;;;;;;5117826;28;20052;-79
2022/04/17 06:34:29;;;;;;;13.65;7.32;;;5.90;99.90;;;;;;5116731;28;20101;-77
2022/04/17 06:36:55;;;;;;;12.18;7.43;;;6.10;99.90;;;;;;5117770;28;20043;-78
2022/04/17 06:39:20;;;;;;;12.20;7.50;;;6.30;99.90;;;;;;5117802;28;20047;-77
2022/04/17 06:41:46;;;;;;;11.77;7.22;;;6.60;99.90;;;;;;5117626;28;20043;-77
2022/04/17 06:44:12;;;;;;;13.52;7.53;;;6.80;99.90;;;;;;5117576;28;20137;-78
2022/04/17 06:46:40;;;;;;;11.43;6.93;;;6.90;99.90;;;;;;5117501;28;20035;-79
2022/04/17 06:49:07;;;;;;;10.65;6.90;;;7.10;99.90;;;;;;5117493;28;20047;-77
2022/04/17 06:51:33;;;;;;;11.10;6.75;;;7.30;99.90;;;;;;5117530;28;20050;-78
2022/04/17 06:53:59;;;;;;;10.95;7.13;;;7.50;99.90;;;;;;5117355;28;20048;-79
2022/04/17 06:56:24;;;;;;;11.45;6.78;;;7.70;99.90;;;;;;5117556;28;20043;-78
2022/04/17 06:58:50;;;;;;;11.25;6.82;;;7.80;99.90;;;;;;5115987;28;20051;-78
2022/04/17 07:01:16;;;;;;;9.55;7.22;;;7.90;99.90;;;;;;5117167;28;20051;-79
2022/04/17 07:03:42;;;;;;;12.98;6.65;;;8.10;99.90;;;;;;5117429;28;20055;-81
2022/04/17 07:06:07;;;;;;;10.98;7.68;;;8.10;99.90;;;;;;5117648;28;20122;-79
2022/04/17 07:08:33;;;;;;;10.90;6.60;;;8.30;99.90;;;;;;5117218;28;20126;-79
2022/04/17 07:10:59;;;;;;;12.25;7.43;;;8.50;99.90;;;;;;5117047;28;20051;-79
2022/04/17 07:13:26;;;;;;;11.63;6.78;;;8.50;99.90;;;;;;5117206;28;20134;-80
2022/04/17 07:15:52;;;;;;;11.63;6.68;;;8.70;99.90;;;;;;5116920;28;20039;-80
2022/04/17 07:18:17;;;;;;;10.07;6.53;;;8.80;99.90;;;;;;5117042;28;20050;-78
2022/04/17 07:20:43;;;;;;;9.93;6.32;;;8.90;99.90;;;;;;5117080;28;20277;-80
2022/04/17 07:23:08;;;;;;;9.30;6.28;;;9.00;99.90;;;;;;5116993;28;20044;-80
2022/04/17 07:25:36;;;;;;;11.60;7.22;;;12.20;99.90;;;;;;5117133;28;20078;-78
2022/04/17 07:28:02;;;;;;;11.63;6.72;;;9.10;99.90;;;;;;5115879;28;20048;-79
2022/04/17 07:30:31;;;;;;;12.13;7.22;;;9.30;99.90;;;;;;5116708;28;20055;-79
2022/04/17 07:32:58;;;;;;;12.00;6.60;;;9.40;99.90;;;;;;5116709;27;20092;-78
2022/04/17 07:35:26;;;;;;;11.15;6.70;;;9.50;99.90;;;;;;5116646;28;20096;-78
2022/04/17 07:37:59;;;;;;;10.48;6.50;;;9.60;99.90;;;;;;5116580;28;20047;-79
2022/04/17 07:40:27;;;;;;;9.73;6.53;;;9.80;99.90;;;;;;5116800;28;20119;-78
2022/04/17 07:42:55;;;;;;;8.60;5.75;;;10.00;99.90;;;;;;5116567;28;20044;-79
2022/04/17 07:45:21;;;;;;;11.77;7.07;;;10.10;99.90;;;;;;5116487;28;20110;-78
2022/04/17 07:47:48;;;;;;;12.68;6.38;;;10.10;99.90;;;;;;5116486;28;20046;-78
2022/04/17 07:50:15;;;;;;;10.53;6.20;;;10.20;99.90;;;;;;5116435;28;20043;-79
2022/04/17 07:52:42;;;;;;;9.85;6.25;;;10.40;99.90;;;;;;5116564;28;20454;-79
2022/04/17 07:55:12;;;;;;;8.27;5.65;;;10.50;99.90;;;;;;5116204;28;20039;-77
2022/04/17 08:00:28;;;;;;;9.68;5.63;;;10.80;99.90;;;;;;5116205;28;20056;-79
2022/04/17 08:03:06;;;;;;;9.32;5.57;;;10.90;99.90;;;;;;5115202;28;20123;-78
2022/04/17 08:05:34;;;;;;;8.88;5.63;;;11.00;99.90;;;;;;5116242;28;20075;-80
2022/04/17 08:07:59;;;;;;;8.35;5.50;;;11.00;99.90;;;;;;5110384;28;20079;-80
2022/04/17 08:10:25;;;;;;;9.23;5.28;;;11.10;99.90;;;;;;5112977;28;20109;-79
2022/04/17 08:12:51;;;;;;;8.48;5.50;;;11.20;99.90;;;;;;5094733;28;20055;-78
2022/04/17 08:15:17;;;;;;;9.18;5.40;;;11.30;99.90;;;;;;5095120;28;20048;-79
2022/04/17 08:17:42;;;;;;;8.20;5.25;;;11.40;99.90;;;;;;5112037;28;20040;-79
2022/04/17 08:20:09;;;;;;;8.35;5.05;;;11.40;99.90;;;;;;5118318;28;20059;-78
2022/04/17 08:22:34;;;;;;;8.25;5.70;;;11.40;99.90;;;;;;5117405;28;20047;-79
2022/04/17 08:25:00;;;;;;;7.28;5.30;;;11.50;99.90;;;;;;5117004;28;20039;-77
2022/04/17 08:27:25;;;;;;;8.90;5.20;;;11.40;99.90;;;;;;5117595;28;20131;-79
2022/04/17 08:29:51;;;;;;;7.55;5.15;;;11.50;99.90;;;;;;5116969;28;20040;-78
2022/04/17 08:32:16;;;;;;;7.00;4.57;;;11.70;99.90;;;;;;5116300;28;20402;-77
2022/04/17 08:34:42;;;;;;;7.63;5.03;;;11.80;99.90;;;;;;5117514;28;20073;-77
2022/04/17 08:37:08;;;;;;;7.70;4.68;;;11.90;98.90;;;;;;5116218;28;20471;-80
2022/04/17 08:39:33;;;;;;;6.13;4.32;;;12.00;99.40;;;;;;5118541;28;20089;-76
2022/04/17 08:42:02;;;;;;;5.80;3.95;;;12.10;97.10;;;;;;5119638;28;20044;-78
2022/04/17 08:44:27;;;;;;;6.72;4.03;;;12.10;96.90;;;;;;5117483;28;20065;-76
2022/04/17 08:46:54;;;;;;;8.95;4.50;;;12.10;96.20;;;;;;5118330;28;20122;-79
2022/04/17 08:49:21;;;;;;;8.37;4.97;;;12.20;97.10;;;;;;5116826;28;20035;-76
2022/04/17 08:51:48;;;;;;;;;;;12.20;97.00;;;;;;5117201;28;20100;-77
2022/04/17 08:54:15;;;;;;;7.05;4.63;;;12.30;97.00;;;;;;5118440;28;20256;-76
2022/04/17 08:56:40;;;;;;;6.38;4.22;;;12.40;97.40;;;;;;5117944;28;20039;-79
2022/04/17 08:59:06;;;;;;;8.32;4.18;;;12.50;96.90;;;;;;5115585;28;20053;-79
2022/04/17 09:01:35;;;;;;;6.25;4.22;;;12.70;97.00;;;;;;5115544;28;20436;-78
2022/04/17 09:04:02;;;;;;;8.38;4.55;;;12.70;95.70;;;;;;5114893;28;20583;-76
2022/04/17 09:06:28;;;;;;;;;;;12.80;96.00;;;;;;5115798;28;20079;-80
2022/04/17 09:09:02;;;;;;;6.93;4.30;;;12.90;96.30;;;;;;5115274;28;20378;-80
2022/04/17 09:11:30;;;;;;;6.72;4.30;;;12.90;97.50;;;;;;5115488;28;20555;-79
2022/04/17 09:14:03;;;;;;;7.88;4.18;;;13.10;96.40;;;;;;5114984;28;20112;-78
2022/04/17 09:16:38;;;;;;;8.23;4.90;;;13.20;95.90;;;;;;5115204;28;20084;-77
2022/04/17 09:19:16;;;;;;;7.82;4.50;;;13.30;96.20;;;;;;5114671;28;20079;-79
2022/04/17 09:21:42;;;;;;;;;;;13.30;94.70;;;;;;5113900;28;20040;-78
2022/04/17 09:24:21;;;;;;;6.25;4.20;;;13.40;95.00;;;;;;5114826;28;19927;-76
2022/04/17 09:26:58;;;;;;;8.23;4.30;;;13.50;95.60;;;;;;5113629;28;20083;-76
2022/04/17 09:29:29;;;;;;;5.47;4.18;;;13.70;96.00;;;;;;5114533;28;20096;-81
2022/04/17 09:31:56;;;;;;;6.75;4.40;;;13.70;93.40;;;;;;5114537;28;20079;-78
2022/04/17 09:34:21;;;;;;;5.97;3.60;;;13.70;94.60;;;;;;5114936;28;20047;-78
2022/04/17 09:36:52;;;;;;;6.95;4.22;;;13.80;93.50;;;;;;5114689;28;20047;-78
2022/04/17 09:39:19;;;;;;;7.72;4.28;;;13.70;93.90;;;;;;5114613;28;20128;-77
2022/04/17 09:41:57;;;;;;;7.28;4.45;;;13.90;93.60;;;;;;5114525;28;20395;-78
2022/04/17 09:44:36;;;;;;;;;;;13.90;94.30;;;;;;5113768;28;20095;-79
2022/04/17 09:47:03;;;;;;;5.28;3.17;;;14.00;93.20;;;;;;5114449;28;19926;-77
2022/04/17 09:49:29;;;;;;;5.82;3.70;;;14.20;92.80;;;;;;5114421;28;20086;-79
2022/04/17 09:52:08;;;;;;;5.95;4.35;;;14.30;92.80;;;;;;5114457;28;20078;-77
2022/04/17 09:54:34;;;;;;;6.53;3.83;;;14.40;92.80;;;;;;5114235;28;20032;-80
2022/04/17 09:56:59;;;;;;;6.65;4.20;;;14.40;92.30;;;;;;5113564;28;20079;-80
2022/04/17 09:59:27;;;;;;;6.50;4.03;;;14.50;93.00;;;;;;5114085;28;20500;-78
2022/04/17 10:01:57;;;;;;;9.20;4.68;;;14.50;91.10;;;;;;5114303;28;20085;-80
2022/04/17 10:04:26;;;;;;;7.03;4.22;;;14.60;91.70;;;;;;5114270;28;20450;-78
2022/04/17 10:07:00;;;;;;;8.23;3.80;;;14.60;90.60;;;;;;5114329;28;20046;-78
2022/04/17 10:09:26;;;;;;;6.30;4.10;;;14.70;91.90;;;;;;5114184;28;20050;-78
2022/04/17 10:11:56;;;;;;;5.77;3.53;;;14.80;92.20;;;;;;5114632;28;20055;-80
2022/04/17 10:14:22;;;;;;;5.40;3.13;;;14.80;90.60;;;;;;5114053;28;20421;-80
2022/04/17 10:16:50;;;;;;;5.28;3.00;;;14.80;86.20;;;;;;5114076;28;20040;-80
2022/04/17 10:19:17;;;;;;;4.30;2.90;;;14.90;85.80;;;;;;5113998;28;20123;-77
2022/04/17 10:21:45;;;;;;;6.82;3.40;;;14.80;86.70;;;;;;5113722;28;20464;-79
2022/04/17 10:24:14;;;;;;;7.03;3.30;;;15.00;85.80;;;;;;5113927;28;20047;-80
2022/04/17 10:26:45;;;;;;;4.80;3.22;;;15.10;87.10;;;;;;5113876;28;20066;-80
2022/04/17 10:29:20;;;;;;;5.00;3.08;;;15.10;82.20;;;;;;5114190;28;20083;-79
2022/04/17 10:31:58;;;;;;;6.60;3.53;;;15.10;82.00;;;;;;5113937;28;20087;-77
2022/04/17 10:34:48;;;;;;;5.80;3.58;;;15.20;85.40;;;;;;5114140;28;20036;-78
2022/04/17 10:37:17;;;;;;;5.78;3.92;;;15.00;83.50;;;;;;5114147;28;20047;-80
2022/04/17 10:39:48;;;;;;;8.40;3.88;;;15.00;84.70;;;;;;5113872;28;20047;-79
2022/04/17 10:42:13;;;;;;;4.45;3.50;;;15.10;85.60;;;;;;5114070;28;20051;-80
2022/04/17 10:44:42;;;;;;;5.23;3.37;;;15.20;85.50;;;;;;5112904;28;20048;-80
2022/04/17 10:47:20;;;;;;;5.38;3.50;;;15.30;86.10;;;;;;5113696;28;20096;-80
2022/04/17 10:49:53;;;;;;;7.22;3.55;;;15.40;84.30;;;;;;5113730;28;20051;-77
2022/04/17 10:52:30;;;;;;;5.22;3.40;;;15.50;83.80;;;;;;5114108;28;20040;-79
2022/04/17 10:54:55;;;;;;;8.77;3.90;;;15.50;81.90;;;;;;5095757;28;20580;-79
2022/04/17 10:57:25;;;;;;;4.50;3.07;;;15.60;82.20;;;;;;5116393;28;20043;-80
2022/04/17 11:00:25;;;;;;;4.88;3.40;;;15.60;83.10;;;;;;5117540;28;20130;-82
2022/04/17 11:02:51;;;;;;;5.50;3.47;;;15.70;78.90;;;;;;5117466;28;20085;-78
2022/04/17 11:08:26;;;;;;;5.00;3.30;;;15.70;77.90;;;;;;5117590;28;20047;-80
2022/04/17 11:10:54;;;;;;;6.88;3.97;;;15.60;79.40;;;;;;5115901;28;20093;-79
2022/04/17 11:13:21;;;;;;;5.93;3.75;;;15.70;78.90;;;;;;5117320;28;20051;-79
2022/04/17 11:15:56;;;;;;;5.95;3.95;;;15.70;80.50;;;;;;5117076;28;20058;-78
2022/04/17 11:18:28;;;;;;;6.15;3.65;;;15.80;77.60;;;;;;5116182;28;20100;-79
2022/04/17 11:20:58;;;;;;;7.22;4.45;;;16.00;83.00;;;;;;5117093;28;20047;-80
2022/04/17 11:23:48;;;;;;;5.18;3.70;;;16.20;78.90;;;;;;5116852;28;20055;-78
2022/04/17 11:26:14;;;;;;;5.93;4.00;;;16.30;78.20;;;;;;5116917;28;20050;-79
2022/04/17 11:28:40;;;;;;;8.10;4.53;;;16.40;77.90;;;;;;5116701;28;20055;-79
2022/04/17 11:31:06;;;;;;;6.67;4.57;;;16.40;79.00;;;;;;5115966;28;20060;-80
2022/04/17 11:33:32;;;;;;;8.13;4.20;;;16.40;79.30;;;;;;5116902;28;20548;-80
2022/04/17 11:35:58;;;;;;;5.33;4.23;;;16.50;79.90;;;;;;5116710;28;20040;-79
2022/04/17 11:38:24;;;;;;;7.28;4.38;;;16.60;80.60;;;;;;5116734;28;20073;-79
2022/04/17 11:40:50;;;;;;;6.40;4.10;;;16.60;78.40;;;;;;5116631;28;20054;-80
2022/04/17 11:43:17;;;;;;;6.97;4.33;;;16.50;78.10;;;;;;5116904;28;20281;-77
2022/04/17 11:45:44;;;;;;;;;;;16.60;77.80;;;;;;5117029;28;20036;-78
2022/04/17 11:48:13;;;;;;;6.00;4.20;;;16.80;79.00;;;;;;5116476;28;19927;-79
2022/04/17 11:50:40;;;;;;;5.15;3.58;;;16.80;75.40;;;;;;5115736;28;20050;-77
2022/04/17 11:53:09;;;;;;;6.40;4.82;;;16.90;77.20;;;;;;5116382;28;20058;-80
2022/04/17 11:55:39;;;;;;;5.35;3.90;;;17.10;79.60;;;;;;5115010;28;20092;-80
2022/04/17 11:58:09;;;;;;;5.18;3.72;;;17.10;77.10;;;;;;5116224;28;20492;-77
2022/04/17 12:00:35;;;;;;;8.07;4.15;;;17.20;74.10;;;;;;5116253;28;20050;-77
2022/04/17 12:03:04;;;;;;;7.67;4.37;;;17.20;74.20;;;;;;5116224;28;20040;-77
2022/04/17 12:05:31;;;;;;;7.20;4.50;;;17.30;74.20;;;;;;5116192;28;20049;-78
2022/04/17 12:08:11;;;;;;;5.63;4.18;;;17.30;74.80;;;;;;5096995;28;20491;-79
2022/04/17 12:10:42;;;;;;;7.78;4.20;;;17.40;73.70;;;;;;5115718;28;20044;-78
2022/04/17 12:13:16;;;;;;;6.95;4.07;;;17.40;73.70;;;;;;5116091;28;20506;-78
2022/04/17 12:15:43;;;;;;;6.75;4.43;;;17.50;72.60;;;;;;5114869;28;20074;-79
2022/04/17 12:18:08;;;;;;;5.78;3.70;;;17.30;71.80;;;;;;5115042;28;20492;-78
2022/04/17 12:20:34;;;;;;;6.80;4.30;;;17.40;72.60;;;;;;5115930;28;20119;-78
2022/04/17 12:22:59;;;;;;;7.37;4.13;;;17.60;75.40;;;;;;5115767;28;20059;-79
2022/04/17 12:25:26;;;;;;;7.43;4.60;;;17.70;74.00;;;;;;5114474;28;20384;-78
2022/04/17 12:27:53;;;;;;;5.53;4.13;;;17.80;74.30;;;;;;5115375;28;20475;-78
2022/04/17 12:30:29;;;;;;;6.88;3.75;;;17.80;72.80;;;;;;5115607;28;20066;-78
2022/04/17 12:32:59;;;;;;;6.22;3.75;;;17.90;72.90;;;;;;5115638;28;20044;-77
2022/04/17 12:35:30;;;;;;;5.93;4.18;;;18.00;72.60;;;;;;5115586;28;20051;-79
2022/04/17 12:38:11;;;;;;;6.75;4.03;;;18.10;72.90;;;;;;5115214;28;20526;-78
2022/04/17 12:40:39;;;;;;;5.63;4.07;;;18.20;71.20;;;;;;5115488;28;20084;-78
2022/04/17 12:43:14;;;;;;;7.72;4.30;;;18.30;71.90;;;;;;5115326;28;20050;-79
2022/04/17 12:45:52;;;;;;;6.63;4.10;;;18.20;68.70;;;;;;5115261;28;20048;-80
2022/04/17 12:48:24;;;;;;;5.35;3.35;;;18.20;69.80;;;;;;5114282;28;20077;-78
2022/04/17 12:50:58;;;;;;;7.43;4.10;;;18.10;70.20;;;;;;5114910;28;20058;-79
2022/04/17 12:53:24;;;;;;;9.38;5.15;;;18.10;69.60;;;;;;5115319;28;20161;-80
2022/04/17 12:55:53;;;;;;;9.50;4.53;;;18.10;71.10;;;;;;5115340;28;20127;-80
2022/04/17 12:58:19;;;;;;;5.70;4.00;;;18.20;71.20;;;;;;5115035;28;20046;-80
2022/04/17 13:00:55;;;;;;;9.73;5.00;;;18.10;71.80;;;;;;5115032;28;20052;-78
2022/04/17 13:03:23;;;;;;;8.30;4.97;;;18.10;70.40;;;;;;5115568;28;20088;-77
2022/04/17 13:05:59;;;;;;;7.68;4.43;;;18.00;71.00;;;;;;5115281;28;20039;-79
2022/04/17 13:08:25;;;;;;;7.70;4.78;;;18.10;71.80;;;;;;5115207;28;20043;-79
2022/04/17 13:10:51;;;;;;;7.60;4.73;;;18.10;69.50;;;;;;5113987;28;20190;-79